sensor_id;sensor_type;location;lat;lon;timestamp;temperature;humidity
3684;DHT22;1858;48.716;9.648;2024-02-26T00:01:35;7.90;1.00
3684;DHT22;1858;48.716;9.648;2024-02-26T00:04:03;7.80;1.00
3684;DHT22;1858;48.716;9.648;2024-02-26T00:06:32;7.90;1.00
3684;DHT22;1858;48.716;9.648;2024-02-26T00:09:00;7.80;1.00
3684;DHT22;1858;48.716;9.648;2024-02-26T00:11:30;7.90;1.00
3684;DHT22;1858;48.716;9.648;2024-02-26T00:13:59;7.90;1.00
3684;DHT22;1858;48.716;9.648;2024-02-26T00:16:27;7.90;1.00
3684;DHT22;1858;48.716;9.648;2024-02-26T00:19:15;7.80;1.00
3684;DHT22;1858;48.716;9.648;2024-02-26T00:21:43;7.80;1.00
3684;DHT22;1858;48.716;9.648;2024-02-26T00:24:12;7.90;1.00
3684;DHT22;1858;48.716;9.648;2024-02-26T00:26:40;7.90;1.00
3684;DHT22;1858;48.716;9.648;2024-02-26T00:29:09;7.90;1.00
3684;DHT22;1858;48.716;9.648;2024-02-26T00:31:38;8.00;1.00
3684;DHT22;1858;48.716;9.648;2024-02-26T00:34:06;8.00;1.00
3684;DHT22;1858;48.716;9.648;2024-02-26T00:36:34;8.00;1.00
3684;DHT22;1858;48.716;9.648;2024-02-26T00:39:03;8.00;1.00
3684;DHT22;1858;48.716;9.648;2024-02-26T00:41:31;8.00;1.00
3684;DHT22;1858;48.716;9.648;2024-02-26T00:43:59;8.00;1.00
3684;DHT22;1858;48.716;9.648;2024-02-26T00:46:28;8.00;1.00
3684;DHT22;1858;48.716;9.648;2024-02-26T00:48:56;8.00;1.00
3684;DHT22;1858;48.716;9.648;2024-02-26T00:51:24;8.00;1.00
3684;DHT22;1858;48.716;9.648;2024-02-26T00:53:53;8.00;1.00
3684;DHT22;1858;48.716;9.648;2024-02-26T00:56:22;8.00;1.00
3684;DHT22;1858;48.716;9.648;2024-02-26T00:58:51;8.00;1.00
3684;DHT22;1858;48.716;9.648;2024-02-26T01:01:19;7.90;1.00
3684;DHT22;1858;48.716;9.648;2024-02-26T01:03:47;7.90;1.00
3684;DHT22;1858;48.716;9.648;2024-02-26T01:06:16;7.90;1.00
3684;DHT22;1858;48.716;9.648;2024-02-26T01:08:44;7.80;1.00
3684;DHT22;1858;48.716;9.648;2024-02-26T01:11:13;7.80;1.00
3684;DHT22;1858;48.716;9.648;2024-02-26T01:13:41;7.80;1.00
3684;DHT22;1858;48.716;9.648;2024-02-26T01:16:09;7.80;1.00
3684;DHT22;1858;48.716;9.648;2024-02-26T01:18:38;7.80;1.00
3684;DHT22;1858;48.716;9.648;2024-02-26T01:21:06;7.80;1.00
3684;DHT22;1858;48.716;9.648;2024-02-26T01:23:36;7.80;1.00
3684;DHT22;1858;48.716;9.648;2024-02-26T01:26:04;7.80;1.00
3684;DHT22;1858;48.716;9.648;2024-02-26T01:28:33;7.70;1.00
3684;DHT22;1858;48.716;9.648;2024-02-26T01:31:01;7.70;1.00
3684;DHT22;1858;48.716;9.648;2024-02-26T01:33:31;7.70;1.00
3684;DHT22;1858;48.716;9.648;2024-02-26T01:35:59;7.80;1.00
3684;DHT22;1858;48.716;9.648;2024-02-26T01:38:28;7.80;1.00
3684;DHT22;1858;48.716;9.648;2024-02-26T01:40:56;7.80;1.00
3684;DHT22;1858;48.716;9.648;2024-02-26T01:43:25;7.70;1.00
3684;DHT22;1858;48.716;9.648;2024-02-26T01:45:54;7.70;1.00
3684;DHT22;1858;48.716;9.648;2024-02-26T01:48:23;7.60;1.00
3684;DHT22;1858;48.716;9.648;2024-02-26T01:51:11;7.70;1.00
3684;DHT22;1858;48.716;9.648;2024-02-26T01:53:40;7.70;1.00
3684;DHT22;1858;48.716;9.648;2024-02-26T01:56:09;7.60;1.00
3684;DHT22;1858;48.716;9.648;2024-02-26T01:58:37;7.60;1.00
3684;DHT22;1858;48.716;9.648;2024-02-26T02:01:05;7.60;1.00
3684;DHT22;1858;48.716;9.648;2024-02-26T02:03:35;7.60;1.00
3684;DHT22;1858;48.716;9.648;2024-02-26T02:06:04;7.60;1.00
3684;DHT22;1858;48.716;9.648;2024-02-26T02:08:34;7.60;1.00
3684;DHT22;1858;48.716;9.648;2024-02-26T02:11:02;7.60;1.00
3684;DHT22;1858;48.716;9.648;2024-02-26T02:13:31;7.50;1.00
3684;DHT22;1858;48.716;9.648;2024-02-26T02:16:01;7.50;1.00
3684;DHT22;1858;48.716;9.648;2024-02-26T02:18:29;7.50;1.00
3684;DHT22;1858;48.716;9.648;2024-02-26T02:21:02;7.50;1.00
3684;DHT22;1858;48.716;9.648;2024-02-26T02:23:31;7.60;1.00
3684;DHT22;1858;48.716;9.648;2024-02-26T02:25:59;7.60;1.00
3684;DHT22;1858;48.716;9.648;2024-02-26T02:28:28;7.60;1.00
3684;DHT22;1858;48.716;9.648;2024-02-26T02:30:56;7.60;1.00
3684;DHT22;1858;48.716;9.648;2024-02-26T02:33:26;7.60;1.00
3684;DHT22;1858;48.716;9.648;2024-02-26T02:35:55;7.60;1.00
3684;DHT22;1858;48.716;9.648;2024-02-26T02:38:23;7.60;1.00
3684;DHT22;1858;48.716;9.648;2024-02-26T02:40:53;7.60;1.00
3684;DHT22;1858;48.716;9.648;2024-02-26T02:43:21;7.70;1.00
3684;DHT22;1858;48.716;9.648;2024-02-26T02:45:49;7.70;1.00
3684;DHT22;1858;48.716;9.648;2024-02-26T02:48:18;7.60;1.00
3684;DHT22;1858;48.716;9.648;2024-02-26T02:50:47;7.70;1.00
3684;DHT22;1858;48.716;9.648;2024-02-26T02:53:15;7.70;1.00
3684;DHT22;1858;48.716;9.648;2024-02-26T02:55:44;7.70;1.00
3684;DHT22;1858;48.716;9.648;2024-02-26T02:58:12;7.70;1.00
3684;DHT22;1858;48.716;9.648;2024-02-26T03:00:40;7.70;1.00
3684;DHT22;1858;48.716;9.648;2024-02-26T03:03:09;7.70;1.00
3684;DHT22;1858;48.716;9.648;2024-02-26T03:05:37;7.80;1.00
3684;DHT22;1858;48.716;9.648;2024-02-26T03:08:06;7.80;1.00
3684;DHT22;1858;48.716;9.648;2024-02-26T03:10:34;7.80;1.00
3684;DHT22;1858;48.716;9.648;2024-02-26T03:13:03;7.80;1.00
3684;DHT22;1858;48.716;9.648;2024-02-26T03:15:31;7.80;1.00
3684;DHT22;1858;48.716;9.648;2024-02-26T03:17:59;7.70;1.00
3684;DHT22;1858;48.716;9.648;2024-02-26T03:20:28;7.80;1.00
3684;DHT22;1858;48.716;9.648;2024-02-26T03:22:56;7.80;1.00
3684;DHT22;1858;48.716;9.648;2024-02-26T03:25:25;7.70;1.00
3684;DHT22;1858;48.716;9.648;2024-02-26T03:27:53;7.70;1.00
3684;DHT22;1858;48.716;9.648;2024-02-26T03:30:22;7.70;1.00
3684;DHT22;1858;48.716;9.648;2024-02-26T03:32:50;7.70;1.00
3684;DHT22;1858;48.716;9.648;2024-02-26T03:35:18;7.70;1.00
3684;DHT22;1858;48.716;9.648;2024-02-26T03:37:47;7.80;1.00
3684;DHT22;1858;48.716;9.648;2024-02-26T03:40:17;7.90;1.00
3684;DHT22;1858;48.716;9.648;2024-02-26T03:42:47;7.90;1.00
3684;DHT22;1858;48.716;9.648;2024-02-26T03:45:15;7.80;1.00
3684;DHT22;1858;48.716;9.648;2024-02-26T03:47:43;7.80;1.00
3684;DHT22;1858;48.716;9.648;2024-02-26T03:50:12;7.90;1.00
3684;DHT22;1858;48.716;9.648;2024-02-26T03:52:40;7.80;1.00
3684;DHT22;1858;48.716;9.648;2024-02-26T03:55:09;7.60;1.00
3684;DHT22;1858;48.716;9.648;2024-02-26T03:57:37;7.60;1.00
3684;DHT22;1858;48.716;9.648;2024-02-26T04:02:57;7.70;1.00
3684;DHT22;1858;48.716;9.648;2024-02-26T04:05:25;7.70;1.00
3684;DHT22;1858;48.716;9.648;2024-02-26T04:07:53;7.60;1.00
3684;DHT22;1858;48.716;9.648;2024-02-26T04:10:22;7.60;1.00
3684;DHT22;1858;48.716;9.648;2024-02-26T04:12:50;7.60;1.00
3684;DHT22;1858;48.716;9.648;2024-02-26T04:15:18;7.50;1.00
3684;DHT22;1858;48.716;9.648;2024-02-26T04:17:47;7.40;21.00
3684;DHT22;1858;48.716;9.648;2024-02-26T04:20:15;7.40;36.50
3684;DHT22;1858;48.716;9.648;2024-02-26T04:22:44;7.40;39.00
3684;DHT22;1858;48.716;9.648;2024-02-26T04:25:12;7.50;13.40
3684;DHT22;1858;48.716;9.648;2024-02-26T04:27:41;7.50;9.60
3684;DHT22;1858;48.716;9.648;2024-02-26T04:30:10;7.50;9.50
3684;DHT22;1858;48.716;9.648;2024-02-26T04:32:38;7.50;11.10
3684;DHT22;1858;48.716;9.648;2024-02-26T04:35:11;7.40;1.00
3684;DHT22;1858;48.716;9.648;2024-02-26T04:37:39;7.40;1.00
3684;DHT22;1858;48.716;9.648;2024-02-26T04:40:08;7.40;1.00
3684;DHT22;1858;48.716;9.648;2024-02-26T04:42:36;7.40;1.00
3684;DHT22;1858;48.716;9.648;2024-02-26T04:45:05;7.40;1.00
3684;DHT22;1858;48.716;9.648;2024-02-26T04:47:34;7.40;1.00
3684;DHT22;1858;48.716;9.648;2024-02-26T04:50:03;7.50;1.00
3684;DHT22;1858;48.716;9.648;2024-02-26T04:52:32;7.50;1.00
3684;DHT22;1858;48.716;9.648;2024-02-26T04:55:00;7.50;1.00
3684;DHT22;1858;48.716;9.648;2024-02-26T04:57:28;7.40;10.10
3684;DHT22;1858;48.716;9.648;2024-02-26T04:59:57;7.30;15.80
3684;DHT22;1858;48.716;9.648;2024-02-26T05:02:25;7.30;19.40
3684;DHT22;1858;48.716;9.648;2024-02-26T05:04:54;7.30;26.00
3684;DHT22;1858;48.716;9.648;2024-02-26T05:07:23;7.20;34.60
3684;DHT22;1858;48.716;9.648;2024-02-26T05:09:51;7.20;48.50
3684;DHT22;1858;48.716;9.648;2024-02-26T05:12:20;7.10;62.10
3684;DHT22;1858;48.716;9.648;2024-02-26T05:14:48;7.10;65.10
3684;DHT22;1858;48.716;9.648;2024-02-26T05:17:16;7.20;69.60
3684;DHT22;1858;48.716;9.648;2024-02-26T05:19:45;7.20;50.20
3684;DHT22;1858;48.716;9.648;2024-02-26T05:22:13;7.30;44.00
3684;DHT22;1858;48.716;9.648;2024-02-26T05:24:41;7.40;42.20
3684;DHT22;1858;48.716;9.648;2024-02-26T05:27:10;7.40;41.10
3684;DHT22;1858;48.716;9.648;2024-02-26T05:29:39;7.30;44.20
3684;DHT22;1858;48.716;9.648;2024-02-26T05:32:07;7.20;49.30
3684;DHT22;1858;48.716;9.648;2024-02-26T05:34:36;7.20;47.30
3684;DHT22;1858;48.716;9.648;2024-02-26T05:37:04;7.30;57.70
3684;DHT22;1858;48.716;9.648;2024-02-26T05:39:33;7.40;71.90
3684;DHT22;1858;48.716;9.648;2024-02-26T05:42:01;7.50;62.10
3684;DHT22;1858;48.716;9.648;2024-02-26T05:44:29;7.40;67.70
3684;DHT22;1858;48.716;9.648;2024-02-26T05:46:58;7.50;63.30
3684;DHT22;1858;48.716;9.648;2024-02-26T05:49:26;7.50;61.70
3684;DHT22;1858;48.716;9.648;2024-02-26T05:51:54;7.50;56.90
3684;DHT22;1858;48.716;9.648;2024-02-26T05:54:23;7.50;62.20
3684;DHT22;1858;48.716;9.648;2024-02-26T05:56:51;7.50;49.70
3684;DHT22;1858;48.716;9.648;2024-02-26T05:59:20;7.50;54.50
3684;DHT22;1858;48.716;9.648;2024-02-26T06:01:49;7.50;64.50
3684;DHT22;1858;48.716;9.648;2024-02-26T06:04:17;7.50;74.60
3684;DHT22;1858;48.716;9.648;2024-02-26T06:06:45;7.60;81.10
3684;DHT22;1858;48.716;9.648;2024-02-26T06:09:14;7.70;54.60
3684;DHT22;1858;48.716;9.648;2024-02-26T06:11:42;7.80;43.60
3684;DHT22;1858;48.716;9.648;2024-02-26T06:14:11;7.70;50.90
3684;DHT22;1858;48.716;9.648;2024-02-26T06:16:41;7.70;78.20
3684;DHT22;1858;48.716;9.648;2024-02-26T06:19:09;7.70;97.60
3684;DHT22;1858;48.716;9.648;2024-02-26T06:21:38;7.80;43.70
3684;DHT22;1858;48.716;9.648;2024-02-26T06:24:06;7.70;16.30
3684;DHT22;1858;48.716;9.648;2024-02-26T06:26:35;7.80;9.00
3684;DHT22;1858;48.716;9.648;2024-02-26T06:29:03;7.80;1.00
3684;DHT22;1858;48.716;9.648;2024-02-26T06:31:31;7.80;1.00
3684;DHT22;1858;48.716;9.648;2024-02-26T06:34:00;7.90;1.00
3684;DHT22;1858;48.716;9.648;2024-02-26T06:36:28;7.90;1.00
3684;DHT22;1858;48.716;9.648;2024-02-26T06:38:58;7.90;1.00
3684;DHT22;1858;48.716;9.648;2024-02-26T06:41:27;8.00;1.00
3684;DHT22;1858;48.716;9.648;2024-02-26T06:43:57;8.10;1.00
3684;DHT22;1858;48.716;9.648;2024-02-26T06:46:25;8.00;1.00
3684;DHT22;1858;48.716;9.648;2024-02-26T06:48:54;7.90;1.00
3684;DHT22;1858;48.716;9.648;2024-02-26T06:51:22;7.90;16.00
3684;DHT22;1858;48.716;9.648;2024-02-26T06:53:51;7.90;18.60
3684;DHT22;1858;48.716;9.648;2024-02-26T06:56:19;7.90;15.00
3684;DHT22;1858;48.716;9.648;2024-02-26T06:58:47;8.00;10.90
3684;DHT22;1858;48.716;9.648;2024-02-26T07:01:16;8.00;4.70
3684;DHT22;1858;48.716;9.648;2024-02-26T07:03:44;8.00;1.10
3684;DHT22;1858;48.716;9.648;2024-02-26T07:06:13;8.00;2.40
3684;DHT22;1858;48.716;9.648;2024-02-26T07:08:41;8.00;6.10
3684;DHT22;1858;48.716;9.648;2024-02-26T07:11:10;8.10;4.80
3684;DHT22;1858;48.716;9.648;2024-02-26T07:13:39;8.10;12.00
3684;DHT22;1858;48.716;9.648;2024-02-26T07:16:09;8.10;15.90
3684;DHT22;1858;48.716;9.648;2024-02-26T07:18:41;8.10;24.60
3684;DHT22;1858;48.716;9.648;2024-02-26T07:21:12;8.20;40.80
3684;DHT22;1858;48.716;9.648;2024-02-26T07:23:40;8.20;55.00
3684;DHT22;1858;48.716;9.648;2024-02-26T07:26:09;8.30;73.00
3684;DHT22;1858;48.716;9.648;2024-02-26T07:28:39;8.30;81.10
3684;DHT22;1858;48.716;9.648;2024-02-26T07:31:07;8.30;90.30
3684;DHT22;1858;48.716;9.648;2024-02-26T07:33:35;8.30;99.90
3684;DHT22;1858;48.716;9.648;2024-02-26T07:36:04;8.40;99.90
3684;DHT22;1858;48.716;9.648;2024-02-26T07:38:32;8.50;99.90
3684;DHT22;1858;48.716;9.648;2024-02-26T07:41:02;8.60;99.90
3684;DHT22;1858;48.716;9.648;2024-02-26T07:43:31;8.70;93.80
3684;DHT22;1858;48.716;9.648;2024-02-26T07:45:59;8.80;79.20
3684;DHT22;1858;48.716;9.648;2024-02-26T07:48:28;8.80;66.50
3684;DHT22;1858;48.716;9.648;2024-02-26T07:50:56;9.00;56.70
3684;DHT22;1858;48.716;9.648;2024-02-26T07:53:27;9.10;43.10
3684;DHT22;1858;48.716;9.648;2024-02-26T07:55:55;9.20;37.60
3684;DHT22;1858;48.716;9.648;2024-02-26T07:58:24;9.40;30.80
3684;DHT22;1858;48.716;9.648;2024-02-26T08:00:52;9.50;13.70
3684;DHT22;1858;48.716;9.648;2024-02-26T08:03:21;9.70;6.70
3684;DHT22;1858;48.716;9.648;2024-02-26T08:05:50;9.70;7.80
3684;DHT22;1858;48.716;9.648;2024-02-26T08:08:19;9.80;5.00
3684;DHT22;1858;48.716;9.648;2024-02-26T08:10:47;9.80;5.80
3684;DHT22;1858;48.716;9.648;2024-02-26T08:13:35;9.80;1.00
3684;DHT22;1858;48.716;9.648;2024-02-26T08:16:22;9.90;1.00
3684;DHT22;1858;48.716;9.648;2024-02-26T08:18:51;9.90;1.00
3684;DHT22;1858;48.716;9.648;2024-02-26T08:21:39;9.90;1.00
3684;DHT22;1858;48.716;9.648;2024-02-26T08:24:07;9.90;1.00
3684;DHT22;1858;48.716;9.648;2024-02-26T08:26:36;10.00;1.00
3684;DHT22;1858;48.716;9.648;2024-02-26T08:29:04;10.00;1.00
3684;DHT22;1858;48.716;9.648;2024-02-26T08:31:33;10.10;1.00
3684;DHT22;1858;48.716;9.648;2024-02-26T08:34:03;10.10;1.00
3684;DHT22;1858;48.716;9.648;2024-02-26T08:36:51;10.20;1.00
3684;DHT22;1858;48.716;9.648;2024-02-26T08:39:19;10.30;1.00
3684;DHT22;1858;48.716;9.648;2024-02-26T08:41:48;10.40;1.00
3684;DHT22;1858;48.716;9.648;2024-02-26T08:44:17;10.50;1.00
3684;DHT22;1858;48.716;9.648;2024-02-26T08:46:45;10.60;1.00
3684;DHT22;1858;48.716;9.648;2024-02-26T08:49:33;10.70;1.00
3684;DHT22;1858;48.716;9.648;2024-02-26T08:52:01;10.80;1.00
3684;DHT22;1858;48.716;9.648;2024-02-26T08:54:30;11.00;1.00
3684;DHT22;1858;48.716;9.648;2024-02-26T08:57:00;11.10;1.00
3684;DHT22;1858;48.716;9.648;2024-02-26T08:59:28;11.00;1.00
3684;DHT22;1858;48.716;9.648;2024-02-26T09:01:56;11.00;1.00
3684;DHT22;1858;48.716;9.648;2024-02-26T09:04:25;10.90;1.00
3684;DHT22;1858;48.716;9.648;2024-02-26T09:06:54;10.90;1.00
3684;DHT22;1858;48.716;9.648;2024-02-26T09:09:23;10.90;1.00
3684;DHT22;1858;48.716;9.648;2024-02-26T09:11:53;10.90;1.00
3684;DHT22;1858;48.716;9.648;2024-02-26T09:14:22;10.90;1.00
3684;DHT22;1858;48.716;9.648;2024-02-26T09:16:51;10.90;1.00
3684;DHT22;1858;48.716;9.648;2024-02-26T09:19:19;10.90;1.00
3684;DHT22;1858;48.716;9.648;2024-02-26T09:21:48;10.90;1.00
3684;DHT22;1858;48.716;9.648;2024-02-26T09:24:16;10.80;1.00
3684;DHT22;1858;48.716;9.648;2024-02-26T09:26:45;10.80;1.00
3684;DHT22;1858;48.716;9.648;2024-02-26T09:29:13;10.70;1.00
3684;DHT22;1858;48.716;9.648;2024-02-26T09:31:41;10.70;1.00
3684;DHT22;1858;48.716;9.648;2024-02-26T09:34:11;10.70;1.00
3684;DHT22;1858;48.716;9.648;2024-02-26T09:36:39;10.70;1.00
3684;DHT22;1858;48.716;9.648;2024-02-26T09:39:08;10.60;1.00
3684;DHT22;1858;48.716;9.648;2024-02-26T09:41:38;10.70;1.00
3684;DHT22;1858;48.716;9.648;2024-02-26T09:44:06;10.80;1.00
3684;DHT22;1858;48.716;9.648;2024-02-26T09:46:35;10.90;1.00
3684;DHT22;1858;48.716;9.648;2024-02-26T09:49:03;11.00;1.00
3684;DHT22;1858;48.716;9.648;2024-02-26T09:51:32;11.20;1.00
3684;DHT22;1858;48.716;9.648;2024-02-26T09:54:01;11.30;1.00
3684;DHT22;1858;48.716;9.648;2024-02-26T09:56:30;11.50;1.00
3684;DHT22;1858;48.716;9.648;2024-02-26T09:59:19;11.70;1.00
3684;DHT22;1858;48.716;9.648;2024-02-26T10:01:48;11.80;1.00
3684;DHT22;1858;48.716;9.648;2024-02-26T10:04:16;11.90;1.00
3684;DHT22;1858;48.716;9.648;2024-02-26T10:06:46;12.10;1.00
3684;DHT22;1858;48.716;9.648;2024-02-26T10:09:15;12.30;1.00
3684;DHT22;1858;48.716;9.648;2024-02-26T10:11:44;12.40;1.00
3684;DHT22;1858;48.716;9.648;2024-02-26T10:14:14;12.60;1.00
3684;DHT22;1858;48.716;9.648;2024-02-26T10:16:44;12.80;1.00
3684;DHT22;1858;48.716;9.648;2024-02-26T10:19:34;13.20;1.00
3684;DHT22;1858;48.716;9.648;2024-02-26T10:21:48;13.60;1.00
3684;DHT22;1858;48.716;9.648;2024-02-26T10:24:16;14.00;1.00
3684;DHT22;1858;48.716;9.648;2024-02-26T10:26:48;14.40;1.00
3684;DHT22;1858;48.716;9.648;2024-02-26T10:29:17;14.70;1.00
3684;DHT22;1858;48.716;9.648;2024-02-26T10:31:54;15.10;1.00
3684;DHT22;1858;48.716;9.648;2024-02-26T10:34:19;15.80;1.00
3684;DHT22;1858;48.716;9.648;2024-02-26T10:39:46;18.00;1.00
3684;DHT22;1858;48.716;9.648;2024-02-26T10:42:13;19.10;1.00
3684;DHT22;1858;48.716;9.648;2024-02-26T10:44:44;20.10;1.00
3684;DHT22;1858;48.716;9.648;2024-02-26T10:47:13;20.10;99.90
3684;DHT22;1858;48.716;9.648;2024-02-26T10:49:48;20.00;99.90
3684;DHT22;1858;48.716;9.648;2024-02-26T10:52:19;19.70;99.90
3684;DHT22;1858;48.716;9.648;2024-02-26T10:54:50;19.50;99.90
3684;DHT22;1858;48.716;9.648;2024-02-26T11:00:14;19.00;1.00
3684;DHT22;1858;48.716;9.648;2024-02-26T11:02:49;18.60;99.90
3684;DHT22;1858;48.716;9.648;2024-02-26T11:05:15;18.40;99.90
3684;DHT22;1858;48.716;9.648;2024-02-26T11:07:44;18.30;99.90
3684;DHT22;1858;48.716;9.648;2024-02-26T11:10:33;18.20;99.90
3684;DHT22;1858;48.716;9.648;2024-02-26T11:13:03;18.10;1.00
3684;DHT22;1858;48.716;9.648;2024-02-26T11:15:32;18.00;1.00
3684;DHT22;1858;48.716;9.648;2024-02-26T11:18:01;17.90;1.00
3684;DHT22;1858;48.716;9.648;2024-02-26T11:20:31;17.90;1.00
3684;DHT22;1858;48.716;9.648;2024-02-26T11:23:00;17.70;1.00
3684;DHT22;1858;48.716;9.648;2024-02-26T11:25:29;17.70;1.40
3684;DHT22;1858;48.716;9.648;2024-02-26T11:28:00;17.70;99.90
3684;DHT22;1858;48.716;9.648;2024-02-26T11:30:32;17.70;99.90
3684;DHT22;1858;48.716;9.648;2024-02-26T11:33:02;17.50;1.00
3684;DHT22;1858;48.716;9.648;2024-02-26T11:35:31;17.50;1.00
3684;DHT22;1858;48.716;9.648;2024-02-26T11:38:00;17.60;1.00
3684;DHT22;1858;48.716;9.648;2024-02-26T11:40:29;17.60;1.00
3684;DHT22;1858;48.716;9.648;2024-02-26T11:42:58;17.60;1.00
3684;DHT22;1858;48.716;9.648;2024-02-26T11:48:29;17.70;1.00
3684;DHT22;1858;48.716;9.648;2024-02-26T11:50:58;17.70;1.00
3684;DHT22;1858;48.716;9.648;2024-02-26T11:53:29;17.60;1.00
3684;DHT22;1858;48.716;9.648;2024-02-26T11:59:09;17.40;1.00
3684;DHT22;1858;48.716;9.648;2024-02-26T12:04:18;17.30;1.00
3684;DHT22;1858;48.716;9.648;2024-02-26T12:09:40;17.10;1.00
3684;DHT22;1858;48.716;9.648;2024-02-26T12:12:10;17.10;1.00
3684;DHT22;1858;48.716;9.648;2024-02-26T12:14:40;17.20;1.00
3684;DHT22;1858;48.716;9.648;2024-02-26T12:17:21;17.10;1.00
3684;DHT22;1858;48.716;9.648;2024-02-26T12:19:40;17.20;1.00
3684;DHT22;1858;48.716;9.648;2024-02-26T12:22:08;17.20;1.00
3684;DHT22;1858;48.716;9.648;2024-02-26T12:24:38;17.30;1.00
3684;DHT22;1858;48.716;9.648;2024-02-26T12:27:07;17.20;1.00
3684;DHT22;1858;48.716;9.648;2024-02-26T12:29:35;17.20;1.00
3684;DHT22;1858;48.716;9.648;2024-02-26T12:32:04;17.20;1.00
3684;DHT22;1858;48.716;9.648;2024-02-26T12:34:33;17.20;1.00
3684;DHT22;1858;48.716;9.648;2024-02-26T12:37:02;17.20;1.00
3684;DHT22;1858;48.716;9.648;2024-02-26T12:39:39;17.20;1.00
3684;DHT22;1858;48.716;9.648;2024-02-26T12:42:07;17.20;1.00
3684;DHT22;1858;48.716;9.648;2024-02-26T12:44:37;17.20;1.00
3684;DHT22;1858;48.716;9.648;2024-02-26T12:47:05;17.20;1.00
3684;DHT22;1858;48.716;9.648;2024-02-26T12:49:34;17.20;1.00
3684;DHT22;1858;48.716;9.648;2024-02-26T12:52:02;17.10;1.00
3684;DHT22;1858;48.716;9.648;2024-02-26T12:54:31;17.10;1.00
3684;DHT22;1858;48.716;9.648;2024-02-26T12:57:02;17.00;1.00
3684;DHT22;1858;48.716;9.648;2024-02-26T12:59:33;16.90;1.00
3684;DHT22;1858;48.716;9.648;2024-02-26T13:02:03;17.00;1.00
3684;DHT22;1858;48.716;9.648;2024-02-26T13:04:32;16.80;1.00
3684;DHT22;1858;48.716;9.648;2024-02-26T13:07:03;16.90;1.00
3684;DHT22;1858;48.716;9.648;2024-02-26T13:09:35;16.80;1.00
3684;DHT22;1858;48.716;9.648;2024-02-26T13:12:08;16.80;1.00
3684;DHT22;1858;48.716;9.648;2024-02-26T13:14:59;16.70;1.00
3684;DHT22;1858;48.716;9.648;2024-02-26T13:17:31;16.70;1.00
3684;DHT22;1858;48.716;9.648;2024-02-26T13:19:57;16.60;1.00
3684;DHT22;1858;48.716;9.648;2024-02-26T13:22:26;16.50;1.00
3684;DHT22;1858;48.716;9.648;2024-02-26T13:24:59;16.40;1.00
3684;DHT22;1858;48.716;9.648;2024-02-26T13:27:29;16.40;1.00
3684;DHT22;1858;48.716;9.648;2024-02-26T13:30:11;16.30;1.00
3684;DHT22;1858;48.716;9.648;2024-02-26T13:33:13;16.30;1.00
3684;DHT22;1858;48.716;9.648;2024-02-26T13:35:38;16.20;1.00
3684;DHT22;1858;48.716;9.648;2024-02-26T13:38:07;16.10;1.00
3684;DHT22;1858;48.716;9.648;2024-02-26T13:40:35;16.10;1.00
3684;DHT22;1858;48.716;9.648;2024-02-26T13:43:04;16.00;1.00
3684;DHT22;1858;48.716;9.648;2024-02-26T13:45:34;15.90;1.00
3684;DHT22;1858;48.716;9.648;2024-02-26T13:48:04;15.80;1.00
3684;DHT22;1858;48.716;9.648;2024-02-26T13:50:33;15.80;1.00
3684;DHT22;1858;48.716;9.648;2024-02-26T13:53:02;15.80;1.00
3684;DHT22;1858;48.716;9.648;2024-02-26T13:55:31;15.80;1.00
3684;DHT22;1858;48.716;9.648;2024-02-26T13:58:00;15.80;1.00
3684;DHT22;1858;48.716;9.648;2024-02-26T14:00:29;15.70;1.00
3684;DHT22;1858;48.716;9.648;2024-02-26T14:03:02;15.80;1.00
3684;DHT22;1858;48.716;9.648;2024-02-26T14:05:31;15.80;1.00
3684;DHT22;1858;48.716;9.648;2024-02-26T14:07:59;15.80;1.00
3684;DHT22;1858;48.716;9.648;2024-02-26T14:10:27;15.90;1.00
3684;DHT22;1858;48.716;9.648;2024-02-26T14:12:56;15.90;1.00
3684;DHT22;1858;48.716;9.648;2024-02-26T14:15:24;15.90;1.00
3684;DHT22;1858;48.716;9.648;2024-02-26T14:17:53;16.00;1.00
3684;DHT22;1858;48.716;9.648;2024-02-26T14:20:23;16.00;1.00
3684;DHT22;1858;48.716;9.648;2024-02-26T14:22:52;16.10;1.00
3684;DHT22;1858;48.716;9.648;2024-02-26T14:25:21;16.00;1.00
3684;DHT22;1858;48.716;9.648;2024-02-26T14:27:50;16.10;1.00
3684;DHT22;1858;48.716;9.648;2024-02-26T14:30:19;16.10;1.00
3684;DHT22;1858;48.716;9.648;2024-02-26T14:32:47;16.10;1.00
3684;DHT22;1858;48.716;9.648;2024-02-26T14:35:16;16.10;1.00
3684;DHT22;1858;48.716;9.648;2024-02-26T14:37:45;16.10;1.00
3684;DHT22;1858;48.716;9.648;2024-02-26T14:40:17;16.10;1.00
3684;DHT22;1858;48.716;9.648;2024-02-26T14:42:46;16.00;1.00
3684;DHT22;1858;48.716;9.648;2024-02-26T14:45:14;16.00;1.00
3684;DHT22;1858;48.716;9.648;2024-02-26T14:47:43;15.80;1.00
3684;DHT22;1858;48.716;9.648;2024-02-26T14:50:12;15.70;1.00
3684;DHT22;1858;48.716;9.648;2024-02-26T14:52:41;15.50;1.00
3684;DHT22;1858;48.716;9.648;2024-02-26T14:55:09;15.40;1.00
3684;DHT22;1858;48.716;9.648;2024-02-26T14:57:37;15.30;1.00
3684;DHT22;1858;48.716;9.648;2024-02-26T15:00:07;15.30;1.00
3684;DHT22;1858;48.716;9.648;2024-02-26T15:02:37;15.30;1.00
3684;DHT22;1858;48.716;9.648;2024-02-26T15:05:05;15.20;1.00
3684;DHT22;1858;48.716;9.648;2024-02-26T15:07:35;15.10;1.00
3684;DHT22;1858;48.716;9.648;2024-02-26T15:10:06;15.00;1.00
3684;DHT22;1858;48.716;9.648;2024-02-26T15:12:34;14.90;1.00
3684;DHT22;1858;48.716;9.648;2024-02-26T15:15:03;14.90;1.00
3684;DHT22;1858;48.716;9.648;2024-02-26T15:17:32;14.80;1.00
3684;DHT22;1858;48.716;9.648;2024-02-26T15:20:02;14.70;1.00
3684;DHT22;1858;48.716;9.648;2024-02-26T15:22:31;14.60;1.00
3684;DHT22;1858;48.716;9.648;2024-02-26T15:24:59;14.50;1.00
3684;DHT22;1858;48.716;9.648;2024-02-26T15:27:27;14.50;1.00
3684;DHT22;1858;48.716;9.648;2024-02-26T15:29:56;14.40;1.00
3684;DHT22;1858;48.716;9.648;2024-02-26T15:32:26;14.50;1.00
3684;DHT22;1858;48.716;9.648;2024-02-26T15:34:55;14.50;1.00
3684;DHT22;1858;48.716;9.648;2024-02-26T15:37:24;14.40;1.00
3684;DHT22;1858;48.716;9.648;2024-02-26T15:39:52;14.30;1.00
3684;DHT22;1858;48.716;9.648;2024-02-26T15:42:21;14.30;1.00
3684;DHT22;1858;48.716;9.648;2024-02-26T15:44:50;14.20;1.00
3684;DHT22;1858;48.716;9.648;2024-02-26T15:47:18;14.10;1.00
3684;DHT22;1858;48.716;9.648;2024-02-26T15:49:47;14.00;1.00
3684;DHT22;1858;48.716;9.648;2024-02-26T15:52:15;14.00;1.00
3684;DHT22;1858;48.716;9.648;2024-02-26T15:54:44;13.80;1.00
3684;DHT22;1858;48.716;9.648;2024-02-26T15:57:12;13.80;1.00
3684;DHT22;1858;48.716;9.648;2024-02-26T15:59:41;13.80;1.00
3684;DHT22;1858;48.716;9.648;2024-02-26T16:02:09;13.70;1.00
3684;DHT22;1858;48.716;9.648;2024-02-26T16:04:38;13.70;1.00
3684;DHT22;1858;48.716;9.648;2024-02-26T16:09:57;13.50;1.00
3684;DHT22;1858;48.716;9.648;2024-02-26T16:15:05;13.50;1.00
3684;DHT22;1858;48.716;9.648;2024-02-26T16:17:42;13.40;1.00
3684;DHT22;1858;48.716;9.648;2024-02-26T16:20:07;13.40;1.00
3684;DHT22;1858;48.716;9.648;2024-02-26T16:22:36;13.40;1.00
3684;DHT22;1858;48.716;9.648;2024-02-26T16:25:04;13.40;1.00
3684;DHT22;1858;48.716;9.648;2024-02-26T16:27:34;13.30;1.00
3684;DHT22;1858;48.716;9.648;2024-02-26T16:30:06;13.20;1.00
3684;DHT22;1858;48.716;9.648;2024-02-26T16:32:38;13.10;1.00
3684;DHT22;1858;48.716;9.648;2024-02-26T16:35:09;13.00;1.00
3684;DHT22;1858;48.716;9.648;2024-02-26T16:37:39;12.90;1.00
3684;DHT22;1858;48.716;9.648;2024-02-26T16:40:08;12.80;1.00
3684;DHT22;1858;48.716;9.648;2024-02-26T16:42:37;12.70;1.00
3684;DHT22;1858;48.716;9.648;2024-02-26T16:45:05;12.70;1.00
3684;DHT22;1858;48.716;9.648;2024-02-26T16:47:34;12.60;1.00
3684;DHT22;1858;48.716;9.648;2024-02-26T16:50:05;12.60;1.00
3684;DHT22;1858;48.716;9.648;2024-02-26T16:52:33;12.50;1.00
3684;DHT22;1858;48.716;9.648;2024-02-26T16:55:02;12.40;1.00
3684;DHT22;1858;48.716;9.648;2024-02-26T16:57:31;12.30;1.00
3684;DHT22;1858;48.716;9.648;2024-02-26T17:00:00;12.30;1.00
3684;DHT22;1858;48.716;9.648;2024-02-26T17:02:28;12.20;1.00